Latest Weather Observations for Fort Denison

IDN60801

Issued at 10:05 am EDT Friday 27 February 2015 (issued every 30 minutes, with the page automatically refreshed every 10 minutes)

About weather observations | Map of weather stations | Latest weather observations for NSW | Other Formats
Station Details ID: 066022 Name: FORT DENISON Lat: -33.86 Lon: 151.23 Height: 5.0 m
Data from the previous 72 hours. | See also: Recent months for locations in New South Wales
Date/Time
EDT
Temp
°C
App
Temp
°C
Dew
Point
Rel
Hum
%
Delta-T
°C
Wind Press
QNH
hPa
Press
MSL
hPa
Rain
since 9 am
mm
Dir
 
Spd
km/h
Gust
km/h
Spd
kts
Gust
kts
27/10:00am - - - - - SE 13 22 7 12 - - -
27/09:30am - - - - - SE 13 22 7 12 - - -
27/09:00am - - - - - S 11 20 6 11 - - -
27/08:30am - - - - - W 9 17 5 9 - - -
27/08:00am - - - - - W 20 26 11 14 - - -
27/07:30am - - - - - W 20 24 11 13 - - -
27/07:00am - - - - - W 17 19 9 10 - - -
27/06:30am - - - - - WNW 15 19 8 10 - - -
27/06:00am - - - - - W 13 19 7 10 - - -
27/05:30am - - - - - WSW 11 19 6 10 - - -
27/05:00am - - - - - WSW 13 19 7 10 - - -
27/04:30am - - - - - W 13 19 7 10 - - -
27/04:00am - - - - - SW 15 24 8 13 - - -
27/03:30am - - - - - SSW 13 24 7 13 - - -
27/03:00am - - - - - SSW 15 22 8 12 - - -
27/02:30am - - - - - SSW 11 17 6 9 - - -
27/02:00am - - - - - SW 6 11 3 6 - - -
27/01:30am - - - - - SSW 9 13 5 7 - - -
27/01:00am - - - - - SSW 7 9 4 5 - - -
27/12:30am - - - - - WSW 9 11 5 6 - - -
27/12:00am - - - - - SW 4 6 2 3 - - -
 
Date/Time
EDT
Temp
°C
App
Temp
°C
Dew
Point
Rel
Hum
%
Delta-T
°C
Wind Press
QNH
hPa
Press
MSL
hPa
Rain
since 9 am
mm
Dir
 
Spd
km/h
Gust
km/h
Spd
kts
Gust
kts
26/11:30pm - - - - - E 4 6 2 3 - - -
26/11:00pm - - - - - NE 4 6 2 3 - - -
26/10:30pm - - - - - NW 2 4 1 2 - - -
26/10:00pm - - - - - WNW 9 13 5 7 - - -
26/09:30pm - - - - - NW 2 4 1 2 - - -
26/09:00pm - - - - - SE 4 7 2 4 - - -
26/08:30pm - - - - - NNE 7 11 4 6 - - -
26/08:00pm - - - - - NE 9 17 5 9 - - -
26/07:30pm - - - - - E 9 11 5 6 - - -
26/07:00pm - - - - - E 7 9 4 5 - - -
26/06:30pm - - - - - E 11 13 6 7 - - -
26/06:00pm - - - - - E 13 17 7 9 - - -
26/05:30pm - - - - - E 11 13 6 7 - - -
26/05:00pm - - - - - E 15 19 8 10 - - -
26/04:30pm - - - - - E 13 17 7 9 - - -
26/04:00pm - - - - - E 13 17 7 9 - - -
26/03:30pm - - - - - E 17 19 9 10 - - -
26/03:00pm - - - - - E 17 19 9 10 - - -
26/02:30pm - - - - - E 17 19 9 10 - - -
26/02:00pm - - - - - E 15 17 8 9 - - -
26/01:30pm - - - - - E 13 15 7 8 - - -
26/01:00pm - - - - - E 11 13 6 7 - - -
26/12:30pm - - - - - E 11 13 6 7 - - -
26/12:00pm - - - - - ESE 4 9 2 5 - - -
26/11:30am - - - - - W 11 15 6 8 - - -
26/11:00am - - - - - W 7 11 4 6 - - -
26/10:30am - - - - - W 13 15 7 8 - - -
26/10:00am - - - - - WNW 15 17 8 9 - - -
26/09:30am - - - - - WNW 15 17 8 9 - - -
26/09:00am - - - - - WNW 15 19 8 10 - - -
26/08:30am - - - - - WNW 17 19 9 10 - - -
26/08:00am - - - - - W 15 19 8 10 - - -
26/07:30am - - - - - WNW 15 17 8 9 - - -
26/07:00am - - - - - SW 6 7 3 4 - - -
26/06:30am - - - - - SW 4 6 2 3 - - -
26/06:00am - - - - - SW 4 6 2 3 - - -
26/05:30am - - - - - SSW 2 7 1 4 - - -
26/05:00am - - - - - SSE 7 11 4 6 - - -
26/04:30am - - - - - SSE 4 6 2 3 - - -
26/04:00am - - - - - SW 4 6 2 3 - - -
26/03:30am - - - - - S 7 9 4 5 - - -
26/03:00am - - - - - SSE 9 13 5 7 - - -
26/02:30am - - - - - SSW 7 9 4 5 - - -
26/02:00am - - - - - W 7 11 4 6 - - -
26/01:30am - - - - - WNW 13 17 7 9 - - -
26/01:00am - - - - - W 11 15 6 8 - - -
26/12:30am - - - - - SW 4 7 2 4 - - -
26/12:00am - - - - - SE 4 7 2 4 - - -
 
Date/Time
EDT
Temp
°C
App
Temp
°C
Dew
Point
Rel
Hum
%
Delta-T
°C
Wind Press
QNH
hPa
Press
MSL
hPa
Rain
since 9 am
mm
Dir
 
Spd
km/h
Gust
km/h
Spd
kts
Gust
kts
25/11:30pm - - - - - SSE 6 7 3 4 - - -
25/11:00pm - - - - - SSE 7 11 4 6 - - -
25/10:30pm - - - - - SE 9 15 5 8 - - -
25/10:00pm - - - - - SE 11 19 6 10 - - -
25/09:30pm - - - - - SE 11 19 6 10 - - -
25/09:00pm - - - - - SE 11 19 6 10 - - -
25/08:30pm - - - - - SSE 13 17 7 9 - - -
25/08:00pm - - - - - S 11 19 6 10 - - -
25/07:30pm - - - - - SSE 17 24 9 13 - - -
25/07:00pm - - - - - S 15 22 8 12 - - -
25/06:30pm - - - - - SE 13 22 7 12 - - -
25/06:00pm - - - - - SE 17 26 9 14 - - -
25/05:30pm - - - - - SE 19 30 10 16 - - -
25/05:00pm - - - - - SE 19 30 10 16 - - -
25/04:30pm - - - - - SSE 26 33 14 18 - - -
25/04:00pm - - - - - SSE 24 35 13 19 - - -
25/03:30pm - - - - - SSE 33 44 18 24 - - -
25/03:00pm - - - - - SSE 30 41 16 22 - - -
25/02:30pm - - - - - SSE 28 43 15 23 - - -
25/02:00pm - - - - - SSE 30 44 16 24 - - -
25/01:30pm - - - - - SSE 28 39 15 21 - - -
25/01:00pm - - - - - SSE 24 37 13 20 - - -
25/12:30pm - - - - - SSE 22 30 12 16 - - -
25/12:00pm - - - - - SSE 24 33 13 18 - - -
25/11:30am - - - - - SSE 28 43 15 23 - - -
25/11:00am - - - - - SSE 28 41 15 22 - - -
25/10:30am - - - - - SE 17 30 9 16 - - -
25/10:00am - - - - - SE 4 7 2 4 - - -
25/09:30am - - - - - S 6 11 3 6 - - -
25/09:00am - - - - - WSW 6 13 3 7 - - -
25/08:30am - - - - - W 17 19 9 10 - - -
25/08:00am - - - - - W 13 19 7 10 - - -
25/07:30am - - - - - WSW 9 13 5 7 - - -
25/07:00am - - - - - W 13 19 7 10 - - -
25/06:30am - - - - - WSW 11 20 6 11 - - -
25/06:00am - - - - - SW 9 17 5 9 - - -
25/05:30am - - - - - W 11 15 6 8 - - -
25/05:00am - - - - - W 11 17 6 9 - - -
25/04:30am - - - - - WSW 11 22 6 12 - - -
25/04:00am - - - - - SW 11 17 6 9 - - -
25/03:30am - - - - - SW 13 19 7 10 - - -
25/03:00am - - - - - SSW 13 19 7 10 - - -
25/02:30am - - - - - SSW 13 20 7 11 - - -
25/02:00am - - - - - SSW 13 19 7 10 - - -
25/01:30am - - - - - SSW 15 22 8 12 - - -
25/01:00am - - - - - SSW 19 26 10 14 - - -
25/12:30am - - - - - SSW 13 24 7 13 - - -
25/12:00am - - - - - SSW 17 26 9 14 - - -
 
Date/Time
EDT
Temp
°C
App
Temp
°C
Dew
Point
Rel
Hum
%
Delta-T
°C
Wind Press
QNH
hPa
Press
MSL
hPa
Rain
since 9 am
mm
Dir
 
Spd
km/h
Gust
km/h
Spd
kts
Gust
kts
24/11:30pm - - - - - SSW 17 28 9 15 - - -
24/11:00pm - - - - - SSW 19 33 10 18 - - -
24/10:30pm - - - - - S 20 37 11 20 - - -
24/10:00pm - - - - - SSW 19 28 10 15 - - -
24/09:30pm - - - - - SSW 20 32 11 17 - - -
24/09:00pm - - - - - SSW 20 37 11 20 - - -
24/08:30pm - - - - - SSW 20 33 11 18 - - -
24/08:00pm - - - - - SSW 20 30 11 16 - - -
24/07:30pm - - - - - SSW 20 32 11 17 - - -
24/07:00pm - - - - - S 20 33 11 18 - - -
24/06:30pm - - - - - S 19 33 10 18 - - -
24/06:00pm - - - - - S 22 33 12 18 - - -
24/05:30pm - - - - - S 26 43 14 23 - - -
24/05:00pm - - - - - S 32 44 17 24 - - -
24/04:30pm - - - - - S 28 52 15 28 - - -
24/04:22pm - - - - - S 28 46 15 25 - - -
24/04:00pm - - - - - S 28 43 15 23 - - -
24/03:30pm - - - - - S 28 44 15 24 - - -
24/03:00pm - - - - - S 33 52 18 28 - - -
24/02:30pm - - - - - S 35 54 19 29 - - -
24/02:00pm - - - - - S 35 54 19 29 - - -
24/01:54pm - - - - - S 35 54 19 29 - - -
24/01:30pm - - - - - S 35 52 19 28 - - -
24/01:07pm - - - - - S 32 50 17 27 - - -
24/01:00pm - - - - - S 33 46 18 25 - - -
24/12:35pm - - - - - S 32 52 17 28 - - -
24/12:30pm - - - - - S 32 48 17 26 - - -
24/12:09pm - - - - - S 28 46 15 25 - - -
24/12:00pm - - - - - S 28 44 15 24 - - -
24/11:45am - - - - - S 30 48 16 26 - - -
24/11:30am - - - - - S 30 46 16 25 - - -
24/11:15am - - - - - S 28 46 15 25 - - -
24/11:00am - - - - - S 22 35 12 19 - - -
24/10:30am - - - - - S 19 32 10 17 - - -

Other Formats:

Comma delimited format used in spreadsheet applications
http://www.bom.gov.au/fwo/IDN60801/IDN60801.94769.axf

JavaScript Object Notation format (JSON) in row-major order
http://www.bom.gov.au/fwo/IDN60801/IDN60801.94769.json